Portada
METAR-TAF:

METAR-TAF

Aeropuertos :

Millinocket Municipal Airport

Millinocket, Maine, Estados Unidos

latitud: 45-38-52N, longitud: 068-41-31W, altitud: 124 m

Observación

El informe se hizo hace 32 minutos, a las 18:53 UTC
Viento 5 kt del este
Temperatura 29°C
Humedad 35%
Presión 1021 hPa
Visibilidad: 16.1 km
Cielo despejado

METAR: KMLT 211853Z AUTO 09005KT 10SM CLR 29/12 A3015 RMK AO2 SLP212 T02890117

Hora: 15:25 (19:25 UTC)


TAF: falta

Observaciones y pronósticos meteorológicos de más de 4000 aeropuertos (mensajes METAR y TAF).

Los puntos amarillos y rojos representan las estaciones disponibles.

Ponga el ratón en el punto deseado para ver el nombre de la estación.

Haga clic para ver las observaciones y los pronósticos meteorológicos.

Para cambiar el mapa : haga clic en los botones verdes con una cruz de color negro para hacer un zoom, en el botón verde con un guión para alejar o en las flechas verdes para mapas adyacentes.


METAR-TAF: